createdAt,value
2019-05-11T00:01:56.491Z,10.74
2019-05-11T00:04:25.411Z,10.74
2019-05-11T00:06:54.167Z,10.72
2019-05-11T00:09:23.107Z,10.72
2019-05-11T00:11:52.027Z,10.75
2019-05-11T00:14:21.219Z,10.72
2019-05-11T00:16:50.044Z,10.73
2019-05-11T00:19:18.818Z,10.75
2019-05-11T00:21:47.697Z,10.73
2019-05-11T00:24:16.518Z,10.73
2019-05-11T00:26:48.959Z,10.70
2019-05-11T00:29:17.836Z,10.67
2019-05-11T00:31:46.687Z,10.65
2019-05-11T00:34:15.552Z,10.66
2019-05-11T00:36:44.483Z,10.67
2019-05-11T00:39:13.278Z,10.66
2019-05-11T00:41:42.267Z,10.67
2019-05-11T00:44:11.170Z,10.67
2019-05-11T00:46:40.149Z,10.69
2019-05-11T00:49:09.007Z,10.70
2019-05-11T00:51:37.837Z,10.67
2019-05-11T00:54:06.681Z,10.67
2019-05-11T00:56:35.790Z,10.68
2019-05-11T00:59:05.012Z,10.67
2019-05-11T01:01:34.196Z,10.64
2019-05-11T01:04:03.047Z,10.61
2019-05-11T01:06:31.889Z,10.61
2019-05-11T01:09:00.727Z,10.54
2019-05-11T01:11:29.474Z,10.54
2019-05-11T01:13:58.297Z,10.54
2019-05-11T01:16:27.121Z,10.52
2019-05-11T01:18:55.958Z,10.52
2019-05-11T01:21:24.841Z,10.51
2019-05-11T01:23:53.739Z,10.50
2019-05-11T01:26:22.665Z,10.51
2019-05-11T01:28:51.609Z,10.50
2019-05-11T01:31:20.386Z,10.48
2019-05-11T01:33:49.316Z,10.50
2019-05-11T01:36:18.376Z,10.48
2019-05-11T01:38:47.329Z,10.46
2019-05-11T01:41:16.352Z,10.48
2019-05-11T01:43:45.261Z,10.47
2019-05-11T01:46:14.255Z,10.49
2019-05-11T01:48:43.168Z,10.49
2019-05-11T01:51:12.499Z,10.50
2019-05-11T01:53:41.443Z,10.48
2019-05-11T01:56:10.512Z,10.48
2019-05-11T01:58:39.746Z,10.47
2019-05-11T02:01:08.664Z,10.47
2019-05-11T02:03:37.570Z,10.47
2019-05-11T02:06:08.629Z,10.44
2019-05-11T02:08:37.415Z,10.44
2019-05-11T02:11:15.523Z,10.42
2019-05-11T02:13:36.845Z,10.44
2019-05-11T02:16:05.656Z,10.42
2019-05-11T02:18:34.727Z,10.41
2019-05-11T02:21:03.957Z,10.34
2019-05-11T02:23:32.740Z,10.38
2019-05-11T02:26:01.532Z,10.35
2019-05-11T02:28:30.434Z,10.32
2019-05-11T02:30:59.336Z,10.33
2019-05-11T02:33:29.097Z,10.32
2019-05-11T02:35:57.888Z,10.31
2019-05-11T02:38:26.749Z,10.28
2019-05-11T02:40:55.547Z,10.27
2019-05-11T02:43:24.333Z,10.24
2019-05-11T02:45:53.116Z,10.23
2019-05-11T02:48:22.272Z,10.20
2019-05-11T02:50:51.421Z,10.18
2019-05-11T02:53:20.322Z,10.17
2019-05-11T02:55:49.792Z,10.19
2019-05-11T02:58:19.028Z,10.16
2019-05-11T03:00:48.011Z,10.15
2019-05-11T03:03:16.798Z,10.14
2019-05-11T03:05:45.766Z,10.12
2019-05-11T03:08:14.653Z,10.10
2019-05-11T03:10:43.694Z,10.07
2019-05-11T03:13:12.544Z,10.06
2019-05-11T03:15:41.836Z,10.08
2019-05-11T03:18:10.723Z,10.04
2019-05-11T03:20:39.437Z,10.06
2019-05-11T03:23:08.184Z,10.06
2019-05-11T03:25:37.107Z,10.07
2019-05-11T03:28:06.327Z,10.07
2019-05-11T03:30:35.269Z,10.07
2019-05-11T03:33:04.130Z,10.06
2019-05-11T03:35:33.019Z,10.06
2019-05-11T03:38:01.831Z,10.04
2019-05-11T03:40:30.589Z,10.03
2019-05-11T03:42:59.469Z,10.00
2019-05-11T03:45:28.244Z,9.98
2019-05-11T03:47:57.053Z,9.97
2019-05-11T03:50:25.826Z,9.98
2019-05-11T03:52:54.629Z,9.97
2019-05-11T03:55:26.485Z,9.98
2019-05-11T03:57:56.591Z,9.99
2019-05-11T04:00:25.774Z,9.94
2019-05-11T04:02:54.738Z,9.95
2019-05-11T04:05:23.632Z,9.95
2019-05-11T04:07:52.353Z,9.94
2019-05-11T04:10:24.825Z,9.91
2019-05-11T04:12:51.912Z,9.93
2019-05-11T04:15:20.904Z,9.95
2019-05-11T04:17:49.723Z,9.96
2019-05-11T04:20:18.748Z,9.98
2019-05-11T04:22:47.492Z,9.97
2019-05-11T04:25:16.352Z,10.00
2019-05-11T04:27:45.192Z,10.02
2019-05-11T04:30:14.478Z,10.04
2019-05-11T04:32:43.827Z,10.04
2019-05-11T04:35:12.712Z,10.05
2019-05-11T04:37:41.628Z,10.08
2019-05-11T04:40:10.574Z,10.15
2019-05-11T04:42:54.206Z,10.23
2019-05-11T04:45:10.973Z,10.28
2019-05-11T04:47:39.932Z,10.32
2019-05-11T04:50:08.918Z,10.36
2019-05-11T04:52:37.845Z,10.39
2019-05-11T04:55:06.736Z,10.39
2019-05-11T04:57:35.568Z,10.39
2019-05-11T05:00:05.660Z,10.38
2019-05-11T05:02:34.951Z,10.40
2019-05-11T05:05:03.798Z,10.38
2019-05-11T05:07:32.632Z,10.37
2019-05-11T05:10:01.835Z,10.38
2019-05-11T05:12:30.770Z,10.40
2019-05-11T05:14:59.939Z,10.39
2019-05-11T05:17:28.777Z,10.37
2019-05-11T05:19:57.685Z,10.34
2019-05-11T05:22:28.116Z,10.42
2019-05-11T05:24:57.086Z,10.42
2019-05-11T05:27:26.549Z,10.45
2019-05-11T05:29:55.314Z,10.47
2019-05-11T05:32:24.130Z,10.47
2019-05-11T05:34:53.001Z,10.46
2019-05-11T05:37:22.039Z,10.47
2019-05-11T05:39:51.171Z,10.46
2019-05-11T05:42:19.997Z,10.47
2019-05-11T05:44:48.881Z,10.48
2019-05-11T05:47:18.012Z,10.49
2019-05-11T05:49:49.261Z,10.48
2019-05-11T05:52:18.143Z,10.49
2019-05-11T05:54:47.165Z,10.48
2019-05-11T05:57:16.341Z,10.46
2019-05-11T05:59:46.399Z,10.44
2019-05-11T06:02:20.293Z,10.47
2019-05-11T06:04:49.239Z,10.45
2019-05-11T06:07:19.246Z,10.46
2019-05-11T06:09:49.136Z,10.47
2019-05-11T06:12:20.599Z,10.50
2019-05-11T06:14:49.447Z,10.53
2019-05-11T06:17:18.333Z,10.58
2019-05-11T06:19:47.491Z,10.60
2019-05-11T06:22:18.081Z,10.62
2019-05-11T06:24:46.994Z,10.60
2019-05-11T06:27:15.860Z,10.60
2019-05-11T06:29:52.801Z,10.60
2019-05-11T06:32:21.711Z,10.60
2019-05-11T06:34:50.666Z,10.58
2019-05-11T06:37:19.665Z,10.59
2019-05-11T06:39:49.918Z,10.61
2019-05-11T06:42:18.888Z,10.57
2019-05-11T06:44:48.169Z,10.55
2019-05-11T06:47:17.339Z,10.57
2019-05-11T06:49:46.611Z,10.56
2019-05-11T06:52:15.477Z,10.56
2019-05-11T06:54:44.491Z,10.58
2019-05-11T06:57:13.435Z,10.59
2019-05-11T06:59:42.265Z,10.64
2019-05-11T07:02:11.275Z,10.68
2019-05-11T07:04:40.131Z,10.73
2019-05-11T07:07:09.144Z,10.83
2019-05-11T07:09:38.115Z,11.11
2019-05-11T07:12:06.985Z,11.58
2019-05-11T07:14:35.946Z,11.86
2019-05-11T07:17:05.943Z,11.97
2019-05-11T07:19:35.810Z,11.97
2019-05-11T07:22:05.151Z,12.01
2019-05-11T07:24:34.036Z,12.11
2019-05-11T07:27:02.966Z,12.14
2019-05-11T07:29:31.825Z,12.19
2019-05-11T07:32:10.095Z,12.20
2019-05-11T07:34:31.476Z,12.23
2019-05-11T07:37:00.394Z,12.26
2019-05-11T07:39:29.723Z,12.26
2019-05-11T07:41:58.739Z,12.28
2019-05-11T07:44:37.968Z,12.27
2019-05-11T07:46:59.210Z,12.24
2019-05-11T07:49:29.233Z,12.24
2019-05-11T07:52:00.721Z,12.24
2019-05-11T07:54:29.587Z,12.25
2019-05-11T07:57:00.192Z,12.32
2019-05-11T07:59:29.168Z,12.40
2019-05-11T08:01:58.479Z,12.67
2019-05-11T08:04:37.796Z,12.91
2019-05-11T08:07:07.742Z,13.03
2019-05-11T08:09:38.074Z,13.18
2019-05-11T08:12:08.940Z,13.39
2019-05-11T08:14:55.888Z,13.61
2019-05-11T08:17:09.274Z,13.97
2019-05-11T08:19:38.513Z,14.10
2019-05-11T08:22:22.687Z,14.38
2019-05-11T08:24:50.746Z,14.76
2019-05-11T08:27:19.708Z,14.97
2019-05-11T08:29:49.305Z,15.07
2019-05-11T08:32:18.441Z,15.09
2019-05-11T08:34:49.056Z,15.08
2019-05-11T08:37:22.421Z,15.07
2019-05-11T08:39:54.563Z,15.08
2019-05-11T08:42:25.734Z,15.40
2019-05-11T08:45:16.113Z,15.77
2019-05-11T08:47:31.144Z,16.24
2019-05-11T08:49:59.978Z,16.70
2019-05-11T08:52:29.300Z,16.89
2019-05-11T08:54:58.806Z,17.15
2019-05-11T08:57:28.583Z,17.28
2019-05-11T08:59:58.048Z,17.66
2019-05-11T09:02:27.843Z,17.79
2019-05-11T09:04:58.815Z,17.94
2019-05-11T09:07:29.280Z,17.90
2019-05-11T09:09:58.780Z,18.14
2019-05-11T09:12:29.961Z,18.06
2019-05-11T09:14:59.136Z,18.40
2019-05-11T09:17:28.978Z,18.21
2019-05-11T09:19:58.210Z,18.26
2019-05-11T09:22:28.508Z,18.17
2019-05-11T09:24:58.364Z,18.20
2019-05-11T09:27:30.143Z,18.01
2019-05-11T09:29:59.180Z,17.95
2019-05-11T09:32:28.655Z,17.93
2019-05-11T09:34:58.095Z,17.83
2019-05-11T09:37:27.858Z,17.73
2019-05-11T09:39:58.333Z,17.71
2019-05-11T09:42:28.560Z,17.91
2019-05-11T09:44:58.610Z,17.90
2019-05-11T09:47:28.039Z,17.89
2019-05-11T09:49:58.189Z,17.80
2019-05-11T09:52:32.670Z,17.76
2019-05-11T09:55:02.000Z,17.95
2019-05-11T09:57:31.400Z,18.10
2019-05-11T10:00:00.322Z,18.39
2019-05-11T10:02:29.234Z,18.43
2019-05-11T10:04:58.203Z,18.54
2019-05-11T10:07:28.610Z,18.28
2019-05-11T10:09:58.330Z,18.12
2019-05-11T10:12:28.611Z,18.14
2019-05-11T10:14:59.181Z,17.95
2019-05-11T10:17:31.665Z,17.81
2019-05-11T10:20:03.187Z,17.71
2019-05-11T10:22:32.041Z,17.58
2019-05-11T10:25:03.918Z,17.59
2019-05-11T10:27:33.185Z,17.67
2019-05-11T10:30:02.307Z,17.72
2019-05-11T10:32:31.192Z,17.87
2019-05-11T10:35:09.410Z,18.13
2019-05-11T10:37:39.057Z,18.38
2019-05-11T10:40:09.663Z,18.71
2019-05-11T10:42:38.551Z,18.60
2019-05-11T10:45:09.142Z,18.78
2019-05-11T10:47:38.586Z,18.56
2019-05-11T10:50:08.580Z,18.58
2019-05-11T10:52:38.008Z,18.46
2019-05-11T10:55:08.813Z,18.49
2019-05-11T10:57:38.690Z,18.61
2019-05-11T11:00:08.606Z,18.56
2019-05-11T11:02:38.656Z,18.63
2019-05-11T11:05:08.250Z,18.65
2019-05-11T11:07:38.361Z,18.64
2019-05-11T11:10:08.854Z,18.55
2019-05-11T11:23:50.096Z,18.42
2019-05-11T11:29:02.587Z,18.34
2019-05-11T11:31:31.474Z,18.25
2019-05-11T11:34:08.172Z,18.18
2019-05-11T11:36:37.679Z,18.03
2019-05-11T11:39:08.530Z,18.03
2019-05-11T11:41:38.460Z,17.96
2019-05-11T11:44:08.030Z,18.06
2019-05-11T11:46:51.251Z,18.06
2019-05-11T11:49:08.342Z,18.04
2019-05-11T11:51:41.028Z,17.91
2019-05-11T11:54:09.814Z,17.92
2019-05-11T11:56:38.631Z,17.87
2019-05-11T11:59:08.546Z,17.96
2019-05-11T12:01:38.469Z,17.82
2019-05-11T12:04:08.652Z,17.77
2019-05-11T12:06:38.541Z,17.66
2019-05-11T12:09:08.929Z,17.64
2019-05-11T12:11:42.459Z,17.70
2019-05-11T12:14:28.322Z,17.83
2019-05-11T12:17:07.387Z,17.91
2019-05-11T12:19:28.123Z,17.82
2019-05-11T12:21:57.988Z,17.80
2019-05-11T12:24:28.772Z,17.64
2019-05-11T12:26:58.738Z,17.65
2019-05-11T12:29:28.287Z,17.59
2019-05-11T12:31:59.157Z,17.56
2019-05-11T12:34:28.483Z,17.55
2019-05-11T12:36:58.139Z,17.43
2019-05-11T12:39:28.239Z,17.45
2019-05-11T12:41:58.273Z,17.27
2019-05-11T12:44:29.955Z,17.20
2019-05-11T12:46:59.905Z,17.15
2019-05-11T12:49:29.132Z,17.00
2019-05-11T12:51:58.338Z,17.07
2019-05-11T12:54:28.084Z,17.21
2019-05-11T12:56:58.058Z,17.27
2019-05-11T12:59:30.219Z,17.37
2019-05-11T13:01:59.273Z,17.43
2019-05-11T13:04:28.467Z,17.34
2019-05-11T13:06:58.168Z,17.11
2019-05-11T13:09:28.827Z,16.84
2019-05-11T13:11:59.270Z,16.63
2019-05-11T13:14:34.388Z,16.24
2019-05-11T13:17:04.433Z,15.83
2019-05-11T13:19:33.362Z,15.21
2019-05-11T13:22:02.885Z,14.52
2019-05-11T13:24:31.762Z,13.99
2019-05-11T13:27:02.733Z,13.61
2019-05-11T13:29:32.810Z,13.24
2019-05-11T13:32:01.798Z,12.71
2019-05-11T13:34:31.612Z,12.42
2019-05-11T13:37:00.431Z,12.23
2019-05-11T13:39:29.244Z,12.12
2019-05-11T13:41:59.056Z,12.07
2019-05-11T13:44:28.164Z,12.06
2019-05-11T13:46:58.692Z,12.14
2019-05-11T13:49:28.385Z,12.22
2019-05-11T13:52:04.257Z,12.37
2019-05-11T13:54:33.114Z,12.52
2019-05-11T13:57:03.018Z,12.72
2019-05-11T13:59:31.840Z,12.88
2019-05-11T14:02:00.853Z,13.00
2019-05-11T14:04:29.614Z,13.06
2019-05-11T14:06:59.431Z,13.12
2019-05-11T14:09:29.392Z,13.13
2019-05-11T14:11:58.540Z,13.10
2019-05-11T14:14:28.750Z,13.18
2019-05-11T14:16:58.850Z,13.27
2019-05-11T14:19:29.232Z,13.37
2019-05-11T14:22:00.463Z,13.49
2019-05-11T14:24:30.465Z,13.59
2019-05-11T14:26:59.498Z,13.68
2019-05-11T14:29:28.611Z,13.73
2019-05-11T14:32:11.130Z,13.76
2019-05-11T14:34:39.938Z,13.68
2019-05-11T14:37:09.003Z,13.60
2019-05-11T14:39:38.444Z,13.57
2019-05-11T14:42:07.757Z,13.57
2019-05-11T14:44:37.752Z,13.54
2019-05-11T14:47:08.521Z,13.51
2019-05-11T14:49:37.946Z,13.50
2019-05-11T14:52:09.004Z,13.48
2019-05-11T14:54:38.348Z,13.33
2019-05-11T14:57:08.119Z,13.05
2019-05-11T14:59:37.744Z,13.01
2019-05-11T15:02:25.344Z,12.86
2019-05-11T15:04:54.550Z,12.58
2019-05-11T15:07:29.396Z,12.20
2019-05-11T15:09:58.698Z,12.01
2019-05-11T15:12:28.830Z,11.82
2019-05-11T15:14:59.123Z,11.55
2019-05-11T15:17:28.303Z,11.45
2019-05-11T15:19:58.031Z,11.32
2019-05-11T15:22:28.743Z,11.32
2019-05-11T15:25:00.769Z,11.35
2019-05-11T15:27:29.715Z,11.34
2019-05-11T15:29:58.859Z,11.37
2019-05-11T15:32:28.591Z,11.33
2019-05-11T15:34:57.892Z,11.27
2019-05-11T15:37:28.671Z,11.30
2019-05-11T15:40:18.479Z,11.30
2019-05-11T15:42:49.242Z,11.26
2019-05-11T15:45:19.674Z,11.23
2019-05-11T15:47:50.636Z,11.22
2019-05-11T15:50:21.213Z,11.22
2019-05-11T15:52:51.328Z,11.27
2019-05-11T15:55:20.401Z,11.28
2019-05-11T15:57:49.386Z,11.30
2019-05-11T16:00:20.531Z,11.31
2019-05-11T16:02:49.653Z,11.35
2019-05-11T16:05:19.530Z,11.39
2019-05-11T16:07:49.192Z,11.40
2019-05-11T16:10:18.941Z,11.42
2019-05-11T16:12:48.725Z,11.43
2019-05-11T16:15:19.201Z,11.43
2019-05-11T16:17:48.925Z,11.37
2019-05-11T16:20:19.428Z,11.41
2019-05-11T16:22:48.400Z,11.42
2019-05-11T16:25:19.641Z,11.38
2019-05-11T16:27:48.366Z,11.35
2019-05-11T16:30:21.127Z,11.35
2019-05-11T16:32:48.799Z,11.34
2019-05-11T16:35:23.721Z,11.32
2019-05-11T16:37:52.650Z,11.31
2019-05-11T16:40:21.606Z,11.31
2019-05-11T16:42:50.973Z,11.28
2019-05-11T16:45:23.870Z,11.27
2019-05-11T16:47:52.880Z,11.13
2019-05-11T16:50:21.693Z,11.03
2019-05-11T16:52:50.471Z,10.95
2019-05-11T16:55:19.378Z,10.97
2019-05-11T16:57:48.759Z,10.92
2019-05-11T17:00:18.237Z,10.88
2019-05-11T17:02:49.662Z,10.86
2019-05-11T17:05:26.617Z,10.84
2019-05-11T17:07:49.273Z,10.83
2019-05-11T17:10:18.315Z,10.79
2019-05-11T17:12:48.256Z,10.75
2019-05-11T17:15:18.630Z,10.82
2019-05-11T17:17:48.832Z,10.80
2019-05-11T17:20:18.932Z,10.78
2019-05-11T17:22:48.450Z,10.82
2019-05-11T17:25:19.327Z,10.78
2019-05-11T17:27:48.860Z,10.83
2019-05-11T17:30:19.219Z,10.86
2019-05-11T17:32:49.484Z,10.89
2019-05-11T17:35:18.893Z,10.89
2019-05-11T17:37:49.123Z,10.88
2019-05-11T17:40:22.774Z,10.89
2019-05-11T17:42:52.824Z,10.80
2019-05-11T17:45:20.054Z,10.69
2019-05-11T17:47:49.362Z,10.55
2019-05-11T17:50:19.305Z,10.42
2019-05-11T17:52:48.573Z,10.36
2019-05-11T17:55:18.822Z,10.25
2019-05-11T17:57:49.699Z,10.12
2019-05-11T18:00:20.057Z,10.01
2019-05-11T18:02:49.824Z,9.92
2019-05-11T18:05:18.759Z,9.82
2019-05-11T18:07:48.097Z,9.79
2019-05-11T18:10:18.243Z,9.75
2019-05-11T18:12:48.906Z,9.77
2019-05-11T18:15:20.440Z,9.75
2019-05-11T18:17:49.461Z,9.68
2019-05-11T18:20:21.510Z,9.67
2019-05-11T18:22:51.066Z,9.64
2019-05-11T18:25:28.513Z,9.64
2019-05-11T18:27:58.193Z,9.65
2019-05-11T18:30:29.104Z,9.57
2019-05-11T18:32:59.382Z,9.56
2019-05-11T18:35:28.421Z,9.55
2019-05-11T18:37:57.218Z,9.52
2019-05-11T18:40:26.112Z,9.51
2019-05-11T18:42:54.979Z,9.54
2019-05-11T18:45:23.876Z,9.56
2019-05-11T18:47:52.697Z,9.54
2019-05-11T18:50:30.457Z,9.44
2019-05-11T18:52:52.841Z,9.45
2019-05-11T18:55:21.796Z,9.40
2019-05-11T18:57:51.971Z,9.36
2019-05-11T19:02:59.187Z,9.44
2019-05-11T19:05:29.524Z,9.43
2019-05-11T19:07:58.816Z,9.45
2019-05-11T19:10:28.024Z,9.46
2019-05-11T19:12:58.948Z,9.49
2019-05-11T19:15:28.253Z,9.43
2019-05-11T19:17:59.605Z,9.47
2019-05-11T19:20:28.600Z,9.49
2019-05-11T19:22:59.034Z,9.40
2019-05-11T19:25:30.102Z,9.38
2019-05-11T19:28:01.008Z,9.42
2019-05-11T19:30:33.546Z,9.45
2019-05-11T19:33:08.269Z,9.41
2019-05-11T19:35:37.854Z,9.43
2019-05-11T19:38:08.864Z,9.48
2019-05-11T19:40:40.171Z,9.50
2019-05-11T19:43:10.896Z,9.53
2019-05-11T19:45:42.459Z,9.55
2019-05-11T19:48:11.395Z,9.58
2019-05-11T19:50:41.125Z,9.53
2019-05-11T19:53:10.222Z,9.55
2019-05-11T19:55:39.354Z,9.55
2019-05-11T19:58:08.333Z,9.59
2019-05-11T20:00:38.044Z,9.52
2019-05-11T20:03:09.166Z,9.50
2019-05-11T20:05:39.372Z,9.53
2019-05-11T20:08:08.328Z,9.54
2019-05-11T20:10:38.556Z,9.54
2019-05-11T20:13:11.606Z,9.54
2019-05-11T20:15:41.609Z,9.54
2019-05-11T20:18:12.819Z,9.54
2019-05-11T20:20:42.199Z,9.54
2019-05-11T20:23:12.170Z,9.52
2019-05-11T20:25:47.774Z,9.51
2019-05-11T20:28:18.376Z,9.54
2019-05-11T20:30:49.210Z,9.54
2019-05-11T20:33:19.517Z,9.55
2019-05-11T20:35:53.547Z,9.57
2019-05-11T20:38:30.547Z,9.56
2019-05-11T20:40:59.524Z,9.54
2019-05-11T20:43:28.444Z,9.50
2019-05-11T20:45:57.455Z,9.50
2019-05-11T20:48:27.812Z,9.47
2019-05-11T20:50:57.755Z,9.45
2019-05-11T20:53:28.760Z,9.48
2019-05-11T20:55:58.531Z,9.47
2019-05-11T20:58:55.051Z,9.46
2019-05-11T21:01:30.067Z,9.45
2019-05-11T21:04:04.147Z,9.45
2019-05-11T21:06:32.976Z,9.42
2019-05-11T21:09:04.823Z,9.39
2019-05-11T21:11:33.575Z,9.39
2019-05-11T21:14:02.402Z,9.38
2019-05-11T21:16:34.558Z,9.36
2019-05-11T21:19:04.344Z,9.36
2019-05-11T21:21:49.435Z,9.36
2019-05-11T21:24:08.482Z,9.27
2019-05-11T21:26:39.844Z,9.30
2019-05-11T21:29:14.305Z,9.25
2019-05-11T21:31:43.263Z,9.25
2019-05-11T21:34:13.332Z,9.25
2019-05-11T21:36:42.228Z,9.26
2019-05-11T21:39:11.109Z,9.22
2019-05-11T21:41:40.694Z,9.24
2019-05-11T21:44:09.693Z,9.25
2019-05-11T21:46:38.945Z,9.24
2019-05-11T21:49:07.979Z,9.23
2019-05-11T21:51:38.905Z,9.25
2019-05-11T21:54:12.170Z,9.23
2019-05-11T21:56:43.345Z,9.24
2019-05-11T21:59:14.659Z,9.26
2019-05-11T22:01:43.801Z,9.24
2019-05-11T22:04:13.451Z,9.23
2019-05-11T22:06:42.382Z,9.27
2019-05-11T22:09:11.236Z,9.26
2019-05-11T22:11:40.121Z,9.27
2019-05-11T22:14:14.934Z,9.28
2019-05-11T22:16:47.841Z,9.29
2019-05-11T22:19:17.769Z,9.30
2019-05-11T22:21:49.642Z,9.29
2019-05-11T22:24:18.577Z,9.20
2019-05-11T22:26:47.608Z,9.22
2019-05-11T22:29:18.141Z,9.19
2019-05-11T22:31:48.684Z,9.25
2019-05-11T22:34:18.040Z,9.26
2019-05-11T22:36:53.969Z,9.26
2019-05-11T22:39:23.230Z,9.27
2019-05-11T22:41:52.076Z,9.27
2019-05-11T22:44:20.986Z,9.28
2019-05-11T22:46:49.788Z,9.28
2019-05-11T22:49:19.815Z,9.29
2019-05-11T22:51:51.514Z,9.30
2019-05-11T22:54:20.551Z,9.30
2019-05-11T22:56:49.335Z,9.30
2019-05-11T22:59:18.528Z,9.31
2019-05-11T23:01:48.290Z,9.32
2019-05-11T23:04:19.682Z,9.31
2019-05-11T23:06:47.869Z,9.33
2019-05-11T23:09:18.472Z,9.34
2019-05-11T23:11:48.229Z,9.34
2019-05-11T23:14:17.690Z,9.35
2019-05-11T23:16:49.876Z,9.32
2019-05-11T23:19:18.711Z,9.34
2019-05-11T23:21:48.140Z,9.37
2019-05-11T23:24:18.099Z,9.37
2019-05-11T23:26:48.059Z,9.38
2019-05-11T23:29:17.100Z,9.38
2019-05-11T23:31:47.768Z,9.41
2019-05-11T23:34:17.726Z,9.41
2019-05-11T23:36:48.696Z,9.41
2019-05-11T23:39:17.873Z,9.41
2019-05-11T23:41:48.239Z,9.41
2019-05-11T23:44:17.999Z,9.40
2019-05-11T23:46:47.834Z,9.41
2019-05-11T23:49:17.937Z,9.41
2019-05-11T23:51:47.804Z,9.42
2019-05-11T23:54:18.575Z,9.44
2019-05-11T23:56:48.040Z,9.44
2019-05-11T23:59:18.815Z,9.41
